Terminal Aerodrome Forecast
Issued by NWS Grand Forks, ND

Home | Current Version | Previous Version | Text Only | Print | Product List | Glossary Off
Versions: 1 2 3 4 5 6 7 8 9 10 11 12 13

593
FTUS43 KFGF 302321
TAFGFK
TAF
KGFK 302321Z 0100/0124 35013KT P6SM OVC015
      TEMPO 0100/0104 OVC008
     FM010600 34009KT P6SM OVC008
     FM011700 35011KT P6SM BKN015=

USA.gov is the U.S. government's official web portal to all federal, state and local government web resources and services.